Time;durP1;ratioP1;P1;durP2;ratioP2;P2;SDS_P1;SDS_P2;PMS_P1;PMS_P2;Temp;Humidity;BMP_temperature;BMP_pressure;BME280_temperature;BME280_humidity;BME280_pressure;Samples;Min_cycle;Max_cycle;Signal;HPM_P1;HPM_P2
2023/04/30 00:00:22;;;;;;;;;23.40;22.00;;;;;-150.52;100.00;63513.88;2029405;27;3567936;-73
2023/04/30 00:01:34;;;;;;;;;23.67;21.00;;;;;-150.52;100.00;63513.88;2048716;27;3580440;-73
2023/04/30 00:02:45;;;;;;;;;32.50;26.00;;;;;-150.52;100.00;63513.88;2006613;27;2862768;-73
2023/04/30 00:03:57;;;;;;;;;28.33;25.67;;;;;-150.52;100.00;63513.88;2008825;27;3583545;-73
2023/04/30 00:05:08;;;;;;;;;26.80;21.20;;;;;-150.52;100.00;63513.88;2011722;27;2844535;-73
2023/04/30 00:06:20;;;;;;;;;31.00;22.80;;;;;-150.52;100.00;63513.88;2034690;28;3602318;-73
2023/04/30 00:07:32;;;;;;;;;27.20;22.60;;;;;-150.52;100.00;63513.88;2014725;27;3586677;-73
2023/04/30 00:08:44;;;;;;;;;30.00;25.33;;;;;-150.52;100.00;63513.88;2010749;27;3573223;-73
2023/04/30 00:09:56;;;;;;;;;31.20;24.20;;;;;-150.52;100.00;63513.88;2053195;27;3576262;-73
2023/04/30 00:11:07;;;;;;;;;28.40;23.60;;;;;-150.52;100.00;63513.88;2024575;27;3592904;-73
2023/04/30 00:12:20;;;;;;;;;31.80;25.80;;;;;-150.52;100.00;63513.88;2022005;27;3602294;-73
2023/04/30 00:13:30;;;;;;;;;30.00;21.50;;;;;-150.52;100.00;63513.88;2005878;28;2506489;-73
2023/04/30 00:14:41;;;;;;;;;27.80;23.40;;;;;-150.52;100.00;63513.88;2007013;27;2845122;-73
2023/04/30 00:15:53;;;;;;;;;29.60;22.20;;;;;-150.52;100.00;63513.88;2043806;28;3591876;-73
2023/04/30 00:17:04;;;;;;;;;27.40;22.80;;;;;-150.52;100.00;63513.88;2029173;27;2848272;-73
2023/04/30 00:18:16;;;;;;;;;29.20;25.60;;;;;-150.52;100.00;63513.88;2050843;27;3571030;-73
2023/04/30 00:19:27;;;;;;;;;32.00;27.40;;;;;-150.52;100.00;63513.88;2036005;27;2851393;-73
2023/04/30 00:20:38;;;;;;;;;17.00;15.00;;;;;-150.52;100.00;63513.88;2048005;27;2809681;-73
2023/04/30 00:21:50;;;;;;;;;31.80;26.80;;;;;-150.52;100.00;63513.88;2022627;27;3585605;-73
2023/04/30 00:23:02;;;;;;;;;25.40;22.60;;;;;-150.52;100.00;63513.88;2029798;27;3578345;-73
2023/04/30 00:24:14;;;;;;;;;27.33;23.67;;;;;-150.52;100.00;63513.88;2047633;27;3588788;-73
2023/04/30 00:25:26;;;;;;;;;28.00;24.60;;;;;-150.52;100.00;63513.88;2028138;27;3571042;-73
2023/04/30 00:26:38;;;;;;;;;26.00;21.60;;;;;-150.52;100.00;63513.88;2052479;27;3576238;-73
2023/04/30 00:27:50;;;;;;;;;31.40;24.80;;;;;-150.52;100.00;63513.88;2045535;28;3583518;-73
2023/04/30 00:29:02;;;;;;;;;27.00;24.00;;;;;-150.52;100.00;63513.88;2012440;28;3582594;-73
2023/04/30 00:30:13;;;;;;;;;29.40;26.00;;;;;-150.52;100.00;63513.88;1995634;28;2844076;-74
2023/04/30 00:31:25;;;;;;;;;28.60;24.60;;;;;-150.52;100.00;63513.88;2040311;28;3570015;-73
2023/04/30 00:32:37;;;;;;;;;27.80;21.40;;;;;-150.52;100.00;63513.88;2043742;28;3591317;-73
2023/04/30 00:33:49;;;;;;;;;25.40;21.60;;;;;-150.52;100.00;63513.88;2019685;28;3570053;-73
2023/04/30 00:35:01;;;;;;;;;33.20;28.20;;;;;-150.52;100.00;63513.88;2030921;28;3593958;-73
2023/04/30 00:36:12;;;;;;;;;22.00;19.33;;;;;-150.52;100.00;63513.88;2007340;28;3564816;-73
2023/04/30 00:37:25;;;;;;;;;29.20;25.60;;;;;-150.52;100.00;63513.88;2044683;28;3590829;-73
2023/04/30 00:38:36;;;;;;;;;30.67;26.67;;;;;-150.52;100.00;63513.88;2014213;28;3582519;-73
2023/04/30 00:39:48;;;;;;;;;23.40;20.00;;;;;-150.52;100.00;63513.88;2021782;27;3575185;-74
2023/04/30 00:41:01;;;;;;;;;29.80;26.40;;;;;-150.52;100.00;63513.88;2017986;28;3589775;-73
2023/04/30 00:42:12;;;;;;;;;22.00;22.00;;;;;-150.52;100.00;63513.88;2004825;28;3576300;-73
2023/04/30 00:43:25;;;;;;;;;30.33;25.33;;;;;-150.52;100.00;63513.88;2017623;27;3587754;-73
2023/04/30 00:44:36;;;;;;;;;28.33;26.33;;;;;-150.52;100.00;63513.88;1999991;27;3596079;-73
2023/04/30 00:45:48;;;;;;;;;28.60;24.80;;;;;-150.52;100.00;63513.88;2022417;27;3582524;-73
2023/04/30 00:47:00;;;;;;;;;34.80;23.40;;;;;-150.52;100.00;63513.88;2022667;28;3593945;-73
2023/04/30 00:48:12;;;;;;;;;32.40;25.40;;;;;-150.52;100.00;63513.88;2020753;28;3605402;-73
2023/04/30 00:49:24;;;;;;;;;33.80;29.60;;;;;-150.52;100.00;63513.88;2021599;28;3609582;-73
2023/04/30 00:50:37;;;;;;;;;27.20;22.40;;;;;-150.52;100.00;63513.88;2019754;28;3577317;-73
2023/04/30 00:51:49;;;;;;;;;29.60;25.80;;;;;-150.52;100.00;63513.88;2007519;28;3591928;-73
2023/04/30 00:53:01;;;;;;;;;26.67;24.33;;;;;-150.52;100.00;63513.88;1990569;28;3589795;-73
2023/04/30 00:54:14;;;;;;;;;28.00;24.20;;;;;-150.52;100.00;63513.88;2005762;28;3584639;-73
2023/04/30 00:55:25;;;;;;;;;28.00;23.00;;;;;-150.52;100.00;63513.88;1997687;28;2857532;-73
2023/04/30 00:56:36;;;;;;;;;29.33;24.00;;;;;-150.52;100.00;63513.88;1998978;28;3590920;-73
2023/04/30 00:57:49;;;;;;;;;28.20;23.80;;;;;-150.52;100.00;63513.88;2016233;28;3581450;-73
2023/04/30 00:59:01;;;;;;;;;29.00;26.67;;;;;-150.52;100.00;63513.88;1993877;28;3576269;-73
2023/04/30 01:00:12;;;;;;;;;31.60;27.20;;;;;-150.52;100.00;63513.88;1995215;28;3589870;-73
2023/04/30 01:01:27;;;;;;;;;29.20;24.60;;;;;-150.52;100.00;63513.88;2032789;28;3593411;-73
2023/04/30 01:02:37;;;;;;;;;25.50;24.00;;;;;-150.52;100.00;63513.88;2001816;28;2847097;-73
2023/04/30 01:03:50;;;;;;;;;31.80;27.80;;;;;-150.52;100.00;63513.88;2020838;28;3590850;-73
2023/04/30 01:05:05;;;;;;;;;29.60;25.80;;;;;-150.52;100.00;63513.88;2008547;28;3582479;-73
2023/04/30 01:06:16;;;;;;;;;29.00;25.00;;;;;-150.52;100.00;63513.88;1998620;28;2849219;-73
2023/04/30 01:07:28;;;;;;;;;33.00;27.40;;;;;-150.52;100.00;63513.88;2022966;28;3580428;-73
2023/04/30 01:08:39;;;;;;;;;30.00;24.00;;;;;-150.52;100.00;63513.88;1994411;28;2848141;-73
2023/04/30 01:09:51;;;;;;;;;29.80;23.20;;;;;-150.52;100.00;63513.88;2013890;28;3596029;-73
2023/04/30 01:11:31;;;;;;;;;26.20;21.80;;;;;-150.52;100.00;63513.88;2022218;28;3564811;-73
2023/04/30 01:12:51;;;;;;;;;28.00;27.00;;;;;-150.52;100.00;63513.88;2023994;28;2831504;-73
2023/04/30 01:14:16;;;;;;;;;30.00;28.00;;;;;-150.52;100.00;63513.88;1993357;28;2855454;-73
2023/04/30 01:15:37;;;;;;;;;28.50;21.50;;;;;-150.52;100.00;63513.88;1999650;28;2847124;-74
2023/04/30 01:16:53;;;;;;;;;30.00;25.00;;;;;-150.52;100.00;63513.88;1997627;27;2842965;-73
2023/04/30 01:18:36;;;;;;;;;32.00;24.00;;;;;-150.52;100.00;63513.88;1995789;28;2873180;-73
2023/04/30 01:19:47;;;;;;;;;29.00;27.50;;;;;-150.52;100.00;63513.88;1991706;28;2840905;-73
2023/04/30 01:21:04;;;;;;;;;30.60;26.20;;;;;-150.52;100.00;63513.88;2015969;27;3581442;-73
2023/04/30 01:22:34;;;;;;;;;21.00;20.00;;;;;-150.52;100.00;63513.88;2026496;28;2833603;-73
2023/04/30 01:24:00;;;;;;;;;32.00;26.67;;;;;-150.52;100.00;63513.88;2023291;28;3584626;-73
2023/04/30 01:25:14;;;;;;;;;31.50;26.00;;;;;-150.52;100.00;63513.88;2002257;28;2858593;-73
2023/04/30 01:26:55;;;;;;;;;29.00;28.50;;;;;-150.52;100.00;63513.88;2002160;27;2843374;-73
2023/04/30 01:28:15;;;;;;;;;25.00;20.50;;;;;-150.52;100.00;63513.88;2001900;27;2827380;-73
2023/04/30 01:29:28;;;;;;;;;32.00;29.00;;;;;-150.52;100.00;63513.88;2030694;27;3582550;-73
2023/04/30 01:30:43;;;;;;;;;24.50;24.00;;;;;-150.52;100.00;63513.88;2005047;27;2844004;-73
2023/04/30 01:31:54;;;;;;;;;27.50;23.50;;;;;-150.52;100.00;63513.88;2005716;27;2852359;-73
2023/04/30 01:33:05;;;;;;;;;24.67;18.67;;;;;-150.52;100.00;63513.88;2023306;27;3581462;-73
2023/04/30 01:34:17;;;;;;;;;25.00;20.67;;;;;-150.52;100.00;63513.88;2041650;28;3576281;-73
2023/04/30 01:36:18;;;;;;;;;27.40;24.20;;;;;-150.52;100.00;63513.88;2039809;28;3580411;-73
2023/04/30 01:37:56;;;;;;;;;30.00;25.00;;;;;-150.52;100.00;63513.88;2012781;27;2851295;-73
2023/04/30 01:39:31;;;;;;;;;27.00;24.00;;;;;-150.52;100.00;63513.88;2009498;27;2846114;-73
2023/04/30 01:40:46;;;;;;;;;26.50;22.50;;;;;-150.52;100.00;63513.88;2000692;28;2846094;-73
2023/04/30 01:42:10;;;;;;;;;24.50;23.00;;;;;-150.52;100.00;63513.88;2003491;27;2846098;-73
2023/04/30 01:43:42;;;;;;;;;23.00;20.67;;;;;-150.52;100.00;63513.88;1996843;28;3579381;-73
2023/04/30 01:44:58;;;;;;;;;34.50;27.50;;;;;-150.52;100.00;63513.88;2005009;27;2856514;-73
2023/04/30 01:46:09;;;;;;;;;29.50;27.50;;;;;-150.52;100.00;63513.88;2004710;27;2858597;-73
2023/04/30 01:47:39;;;;;;;;;24.80;21.00;;;;;-150.52;100.00;63513.88;2029220;27;3572064;-73
2023/04/30 01:49:05;;;;;;;;;27.00;23.00;;;;;-150.52;100.00;63513.88;2034374;27;2836781;-73
2023/04/30 01:50:35;;;;;;;;;31.00;24.50;;;;;-150.52;100.00;63513.88;2007054;27;2849594;-73
2023/04/30 01:51:49;;;;;;;;;30.00;23.50;;;;;-150.52;100.00;63513.88;2009647;27;2856522;-73
2023/04/30 01:53:04;;;;;;;;;30.00;22.50;;;;;-150.52;100.00;63513.88;2000463;28;2842966;-73
2023/04/30 01:54:35;;;;;;;;;27.50;23.50;;;;;-150.52;100.00;63513.88;2002333;27;2846113;-73
2023/04/30 01:56:01;;;;;;;;;30.00;23.50;;;;;-150.52;100.00;63513.88;1999061;28;2850273;-73
2023/04/30 01:57:22;;;;;;;;;24.33;22.00;;;;;-150.52;100.00;63513.88;1995106;28;3567940;-73
2023/04/30 01:58:34;;;;;;;;;30.00;24.50;;;;;-150.52;100.00;63513.88;2031098;27;2847134;-73
2023/04/30 01:59:46;;;;;;;;;31.50;25.50;;;;;-150.52;100.00;63513.88;2008871;27;2846125;-73
2023/04/30 02:00:56;;;;;;;;;27.00;25.00;;;;;-150.52;100.00;63513.88;2009700;27;2843048;-73
2023/04/30 02:02:08;;;;;;;;;28.20;23.40;;;;;-150.52;100.00;63513.88;2027233;27;3583526;-73
2023/04/30 02:03:20;;;;;;;;;26.80;19.80;;;;;-150.52;100.00;63513.88;2055811;27;3578336;-73
2023/04/30 02:04:32;;;;;;;;;19.00;17.33;;;;;-150.52;100.00;63513.88;2047820;27;3552336;-73
2023/04/30 02:05:44;;;;;;;;;19.40;18.80;;;;;-150.52;100.00;63513.88;2045587;27;3547090;-73
2023/04/30 02:06:57;;;;;;;;;31.20;25.20;;;;;-150.52;100.00;63513.88;2048635;27;3572098;-73
2023/04/30 02:08:09;;;;;;;;;23.67;21.33;;;;;-150.52;100.00;63513.88;2005866;27;3561689;-73
2023/04/30 02:09:22;;;;;;;;;22.80;20.40;;;;;-150.52;100.00;63513.88;2044481;28;3573106;-73
2023/04/30 02:10:34;;;;;;;;;24.33;21.67;;;;;-150.52;100.00;63513.88;2025013;28;2833660;-73
2023/04/30 02:11:45;;;;;;;;;27.00;23.67;;;;;-150.52;100.00;63513.88;2023016;27;3596064;-73
2023/04/30 02:12:57;;;;;;;;;28.40;22.60;;;;;-150.52;100.00;63513.88;2025488;27;3585644;-73
2023/04/30 02:14:09;;;;;;;;;28.20;25.00;;;;;-150.52;100.00;63513.88;2024261;27;3582491;-73
2023/04/30 02:15:21;;;;;;;;;24.33;20.33;;;;;-150.52;100.00;63513.88;2021722;27;3582545;-74
2023/04/30 02:16:33;;;;;;;;;27.60;22.00;;;;;-150.52;100.00;63513.88;2051945;27;3567905;-73
2023/04/30 02:17:45;;;;;;;;;23.60;17.80;;;;;-150.52;100.00;63513.88;2030185;27;3550306;-74
2023/04/30 02:18:57;;;;;;;;;31.20;26.80;;;;;-150.52;100.00;63513.88;2047704;27;3595022;-74
2023/04/30 02:20:09;;;;;;;;;31.80;24.00;;;;;-150.52;100.00;63513.88;2029273;27;3613728;-74
2023/04/30 02:21:21;;;;;;;;;21.33;19.67;;;;;-150.52;100.00;63513.88;2007608;27;3575216;-73
2023/04/30 02:22:33;;;;;;;;;25.80;21.40;;;;;-150.52;100.00;63513.88;2054905;27;3571097;-73
2023/04/30 02:23:45;;;;;;;;;27.00;22.80;;;;;-150.52;100.00;63513.88;2042395;27;3592231;-73
2023/04/30 02:24:57;;;;;;;;;28.00;26.67;;;;;-150.52;100.00;63513.88;2022418;27;3587768;-73
2023/04/30 02:26:09;;;;;;;;;31.40;26.40;;;;;-150.52;100.00;63513.88;2022656;27;3578400;-73
2023/04/30 02:27:25;;;;;;;;;23.67;20.33;;;;;-150.52;100.00;63513.88;2015502;28;3563793;-73
2023/04/30 02:28:35;;;;;;;;;28.00;21.50;;;;;-150.52;100.00;63513.88;2031444;27;2844011;-73
2023/04/30 02:29:47;;;;;;;;;25.40;22.60;;;;;-150.52;100.00;63513.88;2025641;27;3571069;-73
2023/04/30 02:30:59;;;;;;;;;29.60;25.20;;;;;-150.52;100.00;63513.88;2040774;27;3582540;-73
2023/04/30 02:32:11;;;;;;;;;24.80;22.80;;;;;-150.52;100.00;63513.88;2019308;27;3578322;-73
2023/04/30 02:33:23;;;;;;;;;27.80;23.80;;;;;-150.52;100.00;63513.88;2020083;28;3590204;-73
2023/04/30 02:34:35;;;;;;;;;23.00;22.33;;;;;-150.52;100.00;63513.88;2017690;27;3574206;-73
2023/04/30 02:35:47;;;;;;;;;26.40;22.60;;;;;-150.52;100.00;63513.88;2045064;27;3563780;-73
2023/04/30 02:36:59;;;;;;;;;30.60;27.20;;;;;-150.52;100.00;63513.88;2051622;27;3590124;-73
2023/04/30 02:38:10;;;;;;;;;25.00;22.50;;;;;-150.52;100.00;63513.88;2011356;27;2835638;-73
2023/04/30 02:39:22;;;;;;;;;25.40;22.00;;;;;-150.52;100.00;63513.88;2021956;28;3573110;-73
2023/04/30 02:40:34;;;;;;;;;25.00;20.80;;;;;-150.52;100.00;63513.88;2047662;27;3572092;-73
2023/04/30 02:41:46;;;;;;;;;24.60;24.00;;;;;-150.52;100.00;63513.88;2028678;27;3585621;-73
2023/04/30 02:43:00;;;;;;;;;28.80;24.60;;;;;-150.52;100.00;63513.88;2021289;28;3575239;-73
2023/04/30 02:44:11;;;;;;;;;27.00;24.00;;;;;-150.52;100.00;63513.88;2028339;27;2843967;-74
2023/04/30 02:45:21;;;;;;;;;29.50;23.50;;;;;-150.52;100.00;63513.88;2030944;27;2836698;-74
2023/04/30 02:46:33;;;;;;;;;30.00;24.80;;;;;-150.52;100.00;63513.88;2028631;27;3596016;-73
2023/04/30 02:47:46;;;;;;;;;24.00;20.33;;;;;-150.52;100.00;63513.88;2024484;27;3585668;-73
2023/04/30 02:48:57;;;;;;;;;26.60;23.00;;;;;-150.52;100.00;63513.88;2042938;27;3580417;-73
2023/04/30 02:50:09;;;;;;;;;24.40;22.60;;;;;-150.52;100.00;63513.88;2018911;28;3567904;-73
2023/04/30 02:51:21;;;;;;;;;36.20;28.00;;;;;-150.52;100.00;63513.88;2029362;28;3580817;-73
2023/04/30 02:52:33;;;;;;;;;18.00;18.00;;;;;-150.52;100.00;63513.88;2017127;27;3572095;-73
2023/04/30 02:53:45;;;;;;;;;33.60;24.20;;;;;-150.52;100.00;63513.88;2024305;27;3593946;-73
2023/04/30 02:54:57;;;;;;;;;26.20;25.60;;;;;-150.52;100.00;63513.88;2024800;27;3582515;-73
2023/04/30 02:56:09;;;;;;;;;25.60;25.60;;;;;-150.52;100.00;63513.88;2026157;27;3582895;-73
2023/04/30 02:57:21;;;;;;;;;24.80;22.60;;;;;-150.52;100.00;63513.88;2030632;27;3567897;-73
2023/04/30 02:58:33;;;;;;;;;21.80;20.00;;;;;-150.52;100.00;63513.88;2028914;27;3561721;-73
2023/04/30 02:59:45;;;;;;;;;22.67;19.33;;;;;-150.52;100.00;63513.88;2049637;27;3565326;-73
2023/04/30 03:00:57;;;;;;;;;26.80;25.80;;;;;-150.52;100.00;63513.88;2050701;27;3582528;-73
2023/04/30 03:02:09;;;;;;;;;30.00;23.00;;;;;-150.52;100.00;63513.88;2019215;27;3595039;-73
2023/04/30 03:03:20;;;;;;;;;24.33;22.33;;;;;-150.52;100.00;63513.88;2026440;27;3589856;-73
2023/04/30 03:04:33;;;;;;;;;28.00;24.20;;;;;-150.52;100.00;63513.88;2053930;27;3599158;-73
2023/04/30 03:05:44;;;;;;;;;27.20;23.20;;;;;-150.52;100.00;63513.88;2029410;27;3579400;-73
2023/04/30 03:06:56;;;;;;;;;29.20;23.80;;;;;-150.52;100.00;63513.88;2030416;27;3580417;-73
2023/04/30 03:08:08;;;;;;;;;25.80;23.00;;;;;-150.52;100.00;63513.88;2017599;28;3587739;-73
2023/04/30 03:09:20;;;;;;;;;27.33;24.33;;;;;-150.52;100.00;63513.88;2013655;28;3584606;-73
2023/04/30 03:10:32;;;;;;;;;26.00;23.40;;;;;-150.52;100.00;63513.88;2022254;27;3584595;-73
2023/04/30 03:11:44;;;;;;;;;24.80;22.80;;;;;-150.52;100.00;63513.88;2030528;27;3572076;-73
2023/04/30 03:12:56;;;;;;;;;28.60;23.40;;;;;-150.52;100.00;63513.88;2022431;27;3587724;-73
2023/04/30 03:14:08;;;;;;;;;32.67;27.00;;;;;-150.52;100.00;63513.88;2018643;27;3595051;-73
2023/04/30 03:15:20;;;;;;;;;31.20;25.00;;;;;-150.52;100.00;63513.88;2028932;27;3598108;-73
2023/04/30 03:16:32;;;;;;;;;27.40;22.80;;;;;-150.52;100.00;63513.88;2021587;28;3584567;-73
2023/04/30 03:17:44;;;;;;;;;28.00;24.60;;;;;-150.52;100.00;63513.88;2012869;28;3591936;-73
2023/04/30 03:18:56;;;;;;;;;27.80;22.40;;;;;-150.52;100.00;63513.88;2015285;28;3591881;-73
2023/04/30 03:20:08;;;;;;;;;30.67;26.67;;;;;-150.52;100.00;63513.88;2019639;27;3591918;-73
2023/04/30 03:21:19;;;;;;;;;26.50;23.00;;;;;-150.52;100.00;63513.88;2025063;28;2852352;-73
2023/04/30 03:22:31;;;;;;;;;28.00;24.20;;;;;-150.52;100.00;63513.88;2021600;27;3589770;-73
2023/04/30 03:23:43;;;;;;;;;27.00;19.00;;;;;-150.52;100.00;63513.88;2049010;27;3566899;-73
2023/04/30 03:24:55;;;;;;;;;21.60;20.80;;;;;-150.52;100.00;63513.88;2043691;28;3560625;-73
2023/04/30 03:26:07;;;;;;;;;28.60;24.20;;;;;-150.52;100.00;63513.88;2035983;28;3591889;-73
2023/04/30 03:27:18;;;;;;;;;29.20;24.20;;;;;-150.52;100.00;63513.88;2007723;28;3593980;-73
2023/04/30 03:28:31;;;;;;;;;29.80;26.40;;;;;-150.52;100.00;63513.88;2022890;27;3598154;-73
2023/04/30 03:29:42;;;;;;;;;30.60;24.40;;;;;-150.52;100.00;63513.88;2025613;27;3575200;-73
2023/04/30 03:30:53;;;;;;;;;29.80;25.40;;;;;-150.52;100.00;63513.88;2035695;27;2840942;-73
2023/04/30 03:32:05;;;;;;;;;24.00;22.20;;;;;-150.52;100.00;63513.88;2052968;27;3566199;-73
2023/04/30 03:33:17;;;;;;;;;26.00;25.60;;;;;-150.52;100.00;63513.88;2053752;27;3583556;-73
2023/04/30 03:34:31;;;;;;;;;25.40;22.20;;;;;-150.52;100.00;63513.88;2049587;27;3571026;-73
2023/04/30 03:35:41;;;;;;;;;26.50;24.00;;;;;-150.52;100.00;63513.88;2036216;27;2848489;-73
2023/04/30 03:36:53;;;;;;;;;25.40;22.80;;;;;-150.52;100.00;63513.88;2029893;27;3587684;-73
2023/04/30 03:38:05;;;;;;;;;25.40;23.40;;;;;-150.52;100.00;63513.88;2028226;27;3582543;-73
2023/04/30 03:39:17;;;;;;;;;29.60;23.20;;;;;-150.52;100.00;63513.88;2045052;27;3592913;-73
2023/04/30 03:40:29;;;;;;;;;31.80;25.20;;;;;-150.52;100.00;63513.88;2017842;28;3587735;-73
2023/04/30 03:41:41;;;;;;;;;22.00;20.40;;;;;-150.52;100.00;63513.88;2021982;27;3564779;-73
2023/04/30 03:42:53;;;;;;;;;28.00;25.00;;;;;-150.52;100.00;63513.88;2043141;27;3579411;-73
2023/04/30 03:44:07;;;;;;;;;31.00;24.00;;;;;-150.52;100.00;63513.88;2053172;27;3592915;-73
2023/04/30 03:45:18;;;;;;;;;26.00;24.00;;;;;-150.52;100.00;63513.88;2010681;27;2845072;-73
2023/04/30 03:46:30;;;;;;;;;31.60;25.80;;;;;-150.52;100.00;63513.88;2022668;27;3589774;-73
2023/04/30 03:47:42;;;;;;;;;29.80;26.00;;;;;-150.52;100.00;63513.88;2029360;27;3582479;-74
2023/04/30 03:48:53;;;;;;;;;29.00;27.00;;;;;-150.52;100.00;63513.88;2007703;27;2840839;-73
2023/04/30 03:50:06;;;;;;;;;29.60;26.80;;;;;-150.52;100.00;63513.88;2015026;27;3589790;-73
2023/04/30 03:51:21;;;;;;;;;30.00;22.00;;;;;-150.52;100.00;63513.88;2009050;27;2849198;-73
2023/04/30 03:52:32;;;;;;;;;34.50;28.00;;;;;-150.52;100.00;63513.88;2001083;28;2852356;-73
2023/04/30 03:53:43;;;;;;;;;34.50;30.50;;;;;-150.52;100.00;63513.88;1997127;28;2856467;-73
2023/04/30 03:54:55;;;;;;;;;28.00;24.60;;;;;-150.52;100.00;63513.88;2027980;27;3585685;-74
2023/04/30 03:56:07;;;;;;;;;33.80;26.80;;;;;-150.52;100.00;63513.88;2027767;27;3596052;-73
2023/04/30 03:57:19;;;;;;;;;32.00;28.60;;;;;-150.52;100.00;63513.88;2016750;27;3595022;-73
2023/04/30 03:58:31;;;;;;;;;28.80;25.60;;;;;-150.52;100.00;63513.88;2016010;27;3593265;-73
2023/04/30 03:59:43;;;;;;;;;32.00;27.80;;;;;-150.52;100.00;63513.88;2020199;28;3577275;-73
2023/04/30 04:00:55;;;;;;;;;34.20;30.00;;;;;-150.52;100.00;63513.88;2042231;27;3592891;-73
2023/04/30 04:02:07;;;;;;;;;29.80;26.00;;;;;-150.52;100.00;63513.88;2022197;27;3583546;-74
2023/04/30 04:03:19;;;;;;;;;18.00;15.67;;;;;-150.52;100.00;63513.88;2005296;28;3542965;-73
2023/04/30 04:04:29;;;;;;;;;39.50;33.50;;;;;-150.52;100.00;63513.88;2025511;27;2864381;-73
2023/04/30 04:05:41;;;;;;;;;36.20;30.80;;;;;-150.52;100.00;63513.88;2025135;27;3596025;-73
2023/04/30 04:06:53;;;;;;;;;34.60;30.40;;;;;-150.52;100.00;63513.88;2026809;27;3600236;-73
2023/04/30 04:08:06;;;;;;;;;41.00;33.60;;;;;-150.52;100.00;63513.88;2021103;28;3589787;-73
2023/04/30 04:09:16;;;;;;;;;33.50;28.00;;;;;-150.52;100.00;63513.88;2002687;27;2854395;-73
2023/04/30 04:10:28;;;;;;;;;40.80;33.00;;;;;-150.52;100.00;63513.88;2031691;27;3613779;-73
2023/04/30 04:11:40;;;;;;;;;35.60;29.60;;;;;-150.52;100.00;63513.88;2027922;27;3594014;-73
2023/04/30 04:12:52;;;;;;;;;43.80;34.60;;;;;-150.52;100.00;63513.88;2023621;27;3598104;-73
2023/04/30 04:14:04;;;;;;;;;32.00;29.33;;;;;-150.52;100.00;63513.88;2021732;27;3588773;-73
2023/04/30 04:15:16;;;;;;;;;36.60;33.00;;;;;-150.52;100.00;63513.88;2022500;27;3604394;-73
2023/04/30 04:16:28;;;;;;;;;39.40;34.80;;;;;-150.52;100.00;63513.88;2022469;28;3582552;-73
2023/04/30 04:17:40;;;;;;;;;43.00;38.00;;;;;-150.52;100.00;63513.88;2046373;27;3601251;-73
2023/04/30 04:18:52;;;;;;;;;46.40;38.80;;;;;-150.52;100.00;63513.88;2028903;27;3589804;-73
2023/04/30 04:20:05;;;;;;;;;38.00;34.00;;;;;-150.52;100.00;63513.88;2019297;28;3593926;-73
2023/04/30 04:21:15;;;;;;;;;40.00;36.00;;;;;-150.52;100.00;63513.88;1995883;28;2850233;-73
2023/04/30 04:22:27;;;;;;;;;47.40;37.60;;;;;-150.52;100.00;63513.88;2017018;28;3577658;-73
2023/04/30 04:23:39;;;;;;;;;43.60;34.60;;;;;-150.52;100.00;63513.88;2049390;27;3604389;-73
2023/04/30 04:24:52;;;;;;;;;46.80;37.20;;;;;-150.52;100.00;63513.88;2031202;27;3583525;-73
2023/04/30 04:26:03;;;;;;;;;49.67;38.67;;;;;-150.52;100.00;63513.88;2016768;27;3626285;-73
2023/04/30 04:27:15;;;;;;;;;42.20;35.60;;;;;-150.52;100.00;63513.88;2017093;28;3588800;-73
2023/04/30 04:28:27;;;;;;;;;38.67;35.67;;;;;-150.52;100.00;63513.88;2015890;27;3582565;-73
2023/04/30 04:29:39;;;;;;;;;38.40;34.60;;;;;-150.52;100.00;63513.88;2025017;27;3598152;-73
2023/04/30 04:30:51;;;;;;;;;46.00;37.20;;;;;-150.52;100.00;63513.88;2014081;27;3616885;-73
2023/04/30 04:32:04;;;;;;;;;47.20;39.60;;;;;-150.52;100.00;63513.88;2029653;27;3589094;-73
2023/04/30 04:33:16;;;;;;;;;56.00;42.50;;;;;-150.52;100.00;63513.88;2033702;27;2861671;-73
2023/04/30 04:34:27;;;;;;;;;47.33;37.67;;;;;-150.52;100.00;63513.88;2006239;27;3611717;-74
2023/04/30 04:35:39;;;;;;;;;52.40;41.60;;;;;-150.52;100.00;63513.88;2027176;27;3591890;-74
2023/04/30 04:36:51;;;;;;;;;48.60;38.20;;;;;-150.52;100.00;63513.88;2010287;28;3588759;-74
2023/04/30 04:38:03;;;;;;;;;46.33;36.33;;;;;-150.52;100.00;63513.88;2026914;27;3576266;-73
2023/04/30 04:39:15;;;;;;;;;47.00;40.80;;;;;-150.52;100.00;63513.88;2041352;27;3601244;-73
2023/04/30 04:40:27;;;;;;;;;52.80;41.20;;;;;-150.52;100.00;63513.88;2018441;27;3599192;-73
2023/04/30 04:41:40;;;;;;;;;45.60;39.00;;;;;-150.52;100.00;63513.88;2028749;27;3571069;-73
2023/04/30 04:42:51;;;;;;;;;56.00;46.50;;;;;-150.52;100.00;63513.88;2034459;27;2861671;-73
2023/04/30 04:44:03;;;;;;;;;50.80;40.60;;;;;-150.52;100.00;63513.88;2017143;27;3586997;-73
2023/04/30 04:45:14;;;;;;;;;53.50;41.50;;;;;-150.52;100.00;63513.88;2010285;27;2858558;-73
2023/04/30 04:46:25;;;;;;;;;54.00;46.00;;;;;-150.52;100.00;63513.88;2011660;27;2848137;-73
2023/04/30 04:47:37;;;;;;;;;51.00;40.60;;;;;-150.52;100.00;63513.88;2027570;27;3590832;-73
2023/04/30 04:48:49;;;;;;;;;55.20;44.20;;;;;-150.52;100.00;63513.88;2016883;28;3591905;-73
2023/04/30 04:50:01;;;;;;;;;55.80;43.60;;;;;-150.52;100.00;63513.88;2014353;27;3604492;-73
2023/04/30 04:51:12;;;;;;;;;50.50;40.50;;;;;-150.52;100.00;63513.88;2000966;28;2851252;-73
2023/04/30 04:52:24;;;;;;;;;52.20;42.00;;;;;-150.52;100.00;63513.88;2021660;27;3606582;-73
2023/04/30 04:53:36;;;;;;;;;53.00;43.80;;;;;-150.52;100.00;63513.88;2020208;27;3597081;-74
2023/04/30 04:54:48;;;;;;;;;52.80;40.40;;;;;-150.52;100.00;63513.88;2022835;27;3605408;-73
2023/04/30 04:56:00;;;;;;;;;51.80;38.80;;;;;-150.52;100.00;63513.88;2029142;27;3604401;-73
2023/04/30 04:57:12;;;;;;;;;48.60;38.20;;;;;-150.52;100.00;63513.88;2021432;27;3591861;-73
2023/04/30 04:58:24;;;;;;;;;52.40;39.80;;;;;-150.52;100.00;63513.88;2020863;27;3592912;-73
2023/04/30 04:59:36;;;;;;;;;55.20;41.80;;;;;-150.52;100.00;63513.88;2009638;28;3612064;-73
2023/04/30 05:00:48;;;;;;;;;50.20;41.00;;;;;-150.52;100.00;63513.88;2019792;27;3578340;-73
2023/04/30 05:02:00;;;;;;;;;50.00;40.40;;;;;-150.52;100.00;63513.88;2029748;27;3582515;-73
2023/04/30 05:03:13;;;;;;;;;54.80;41.20;;;;;-150.52;100.00;63513.88;2041774;27;3612172;-73
2023/04/30 05:04:23;;;;;;;;;54.00;43.00;;;;;-150.52;100.00;63513.88;2005440;27;2850222;-73
2023/04/30 05:05:35;;;;;;;;;50.20;40.20;;;;;-150.52;100.00;63513.88;2028518;27;3590853;-73
2023/04/30 05:06:47;;;;;;;;;46.60;37.20;;;;;-150.52;100.00;63513.88;2029388;27;3588754;-74
2023/04/30 05:07:59;;;;;;;;;48.40;37.60;;;;;-150.52;100.00;63513.88;2051795;27;3606461;-74
2023/04/30 05:09:11;;;;;;;;;45.00;36.00;;;;;-150.52;100.00;63513.88;2027258;27;3602275;-74
2023/04/30 05:10:23;;;;;;;;;38.33;32.33;;;;;-150.52;100.00;63513.88;2017663;28;3593369;-73
2023/04/30 05:11:35;;;;;;;;;46.40;35.60;;;;;-150.52;100.00;63513.88;2021112;27;3590824;-73
2023/04/30 05:12:47;;;;;;;;;44.67;38.33;;;;;-150.52;100.00;63513.88;2020054;27;3606512;-74
2023/04/30 05:13:59;;;;;;;;;37.33;33.67;;;;;-150.52;100.00;63513.88;2015021;27;3600249;-73
2023/04/30 05:15:11;;;;;;;;;41.40;32.00;;;;;-150.52;100.00;63513.88;2026613;27;3617236;-73
2023/04/30 05:16:23;;;;;;;;;44.60;37.40;;;;;-150.52;100.00;63513.88;2016036;28;3575185;-73
2023/04/30 05:17:35;;;;;;;;;45.40;36.60;;;;;-150.52;100.00;63513.88;2040784;27;3584567;-73
2023/04/30 05:18:47;;;;;;;;;47.80;40.40;;;;;-150.52;100.00;63513.88;2024415;27;3592943;-73